Redwood City, CA (94065)

2:10 PM PDT on August 23, 2016 (GMT -0700)
Redwood Shores | | Change Station

Elev -9 ft 37.54 °N, 122.25 °W | Updated 8 minutes ago

Clear
Clear
69.1 °F
Feels Like 69.1 °F
N
1.2
Wind Variable Wind from NE
Gusts 3.7 mph

Today
High -- | Low -- °F
--% Chance of Precip.
Yesterday
High -- | Low -- °F
Precip. -- in
Pressure 30.08 in
Visibility 10.0 miles
Clouds Clear
Dew Point 59 °F
Humidity 71%
Rainfall Not available.
Snow Depth Not available.
6:32 AM 7:49 PM
Waning Gibbous, 64% visible
METAR KSQL 232055Z 02009KT 10SM SKC 20/15 A3008
Pressure 30.08 in
Visibility 10.0 miles
Clouds Clear
Dew Point 59 °F
Humidity 71%
Rainfall Not available.
Snow Depth Not available.
6:32 AM 7:49 PM
Waning Gibbous, 64% visible
METAR KSQL 232055Z 02009KT 10SM SKC 20/15 A3008

10-Day Weather Forecast

Almanac

Astronomy

Aug. 23, 2016 Rise Set
Actual Time
Civil Twilight
Nautical Twilight
Astronomical Twilight
Moon
Length of Visible Light
Length of Day
Tomorrow will be .
, % of the Moon is Illuminated

Today's Extremes

State Highs State Lows

Community

WunderPhotos

Upload Photos

1,934,455 photos uploaded!

WunderBlog® & News

Nearby

Air Quality

  Air Quality AQ Index Pollutant
Not available.

Snow Depth

Station Depth Elevation

Earthquake Activity

City Distance Mag. Time & Date
Minimum magnitude displayed is 2.5.

Coastal Water Temperatures

Place Temperature

Stations

Nearby Weather Stations

Station Location Temp. Windchill Dew Point Humidity Wind Precip. Elev Updated Type
                   

Watches & Warnings

There are currently no watches in effect.